createdAt,value
2023-01-20T00:01:48.157Z,2.18
2023-01-20T00:04:19.251Z,2.13
2023-01-20T00:06:48.390Z,2.12
2023-01-20T00:09:18.812Z,2.10
2023-01-20T00:11:48.063Z,2.06
2023-01-20T00:14:17.474Z,2.04
2023-01-20T00:16:48.102Z,2.00
2023-01-20T00:19:17.389Z,1.96
2023-01-20T00:21:46.251Z,1.98
2023-01-20T00:24:16.567Z,1.96
2023-01-20T00:26:45.515Z,1.93
2023-01-20T00:29:14.935Z,1.91
2023-01-20T00:31:44.002Z,1.87
2023-01-20T00:34:14.563Z,1.84
2023-01-20T00:36:43.385Z,1.80
2023-01-20T00:39:12.615Z,1.81
2023-01-20T00:41:41.529Z,1.78
2023-01-20T00:44:10.829Z,1.73
2023-01-20T00:46:39.840Z,1.68
2023-01-20T00:49:10.223Z,1.65
2023-01-20T00:51:40.504Z,1.63
2023-01-20T00:54:09.790Z,1.64
2023-01-20T00:56:38.690Z,1.64
2023-01-20T00:59:07.971Z,1.62
2023-01-20T01:01:37.031Z,1.59
2023-01-20T01:04:06.437Z,1.53
2023-01-20T01:06:35.454Z,1.52
2023-01-20T01:09:06.038Z,1.47
2023-01-20T01:11:34.813Z,1.43
2023-01-20T01:14:04.004Z,1.40
2023-01-20T01:16:32.995Z,1.41
2023-01-20T01:19:02.330Z,1.40
2023-01-20T01:21:31.345Z,1.35
2023-01-20T01:24:00.516Z,1.39
2023-01-20T01:26:30.889Z,1.35
2023-01-20T01:29:00.246Z,1.34
2023-01-20T01:31:29.117Z,1.35
2023-01-20T01:33:58.438Z,1.35
2023-01-20T01:36:27.304Z,1.35
2023-01-20T01:38:57.470Z,1.34
2023-01-20T01:41:29.597Z,1.35
2023-01-20T01:44:05.919Z,1.34
2023-01-20T01:46:35.174Z,1.32
2023-01-20T01:49:08.521Z,1.29
2023-01-20T01:51:42.422Z,1.29
2023-01-20T01:54:14.336Z,1.28
2023-01-20T01:56:47.075Z,1.30
2023-01-20T01:59:18.534Z,1.29
2023-01-20T02:01:51.364Z,1.27
2023-01-20T02:04:23.323Z,1.25
2023-01-20T02:06:56.117Z,1.20
2023-01-20T02:09:26.332Z,1.14
2023-01-20T02:12:01.341Z,1.12
2023-01-20T02:14:35.351Z,1.08
2023-01-20T02:17:13.723Z,1.03
2023-01-20T02:20:03.896Z,1.04
2023-01-20T02:22:41.788Z,1.03
2023-01-20T02:25:32.574Z,1.00
2023-01-20T02:28:19.361Z,1.01
2023-01-20T02:31:22.283Z,1.02
2023-01-20T02:33:59.205Z,0.98
2023-01-20T02:36:33.993Z,0.90
2023-01-20T02:39:10.424Z,0.85
2023-01-20T02:41:52.589Z,0.81
2023-01-20T02:44:29.617Z,0.81
2023-01-20T02:47:04.072Z,0.80
2023-01-20T02:49:39.126Z,0.80
2023-01-20T02:52:14.471Z,0.79
2023-01-20T02:54:49.030Z,0.75
2023-01-20T02:57:22.959Z,0.76
2023-01-20T02:59:56.861Z,0.77
2023-01-20T03:02:29.625Z,0.77
2023-01-20T03:05:05.521Z,0.76
2023-01-20T03:07:37.183Z,0.76
2023-01-20T03:10:10.979Z,0.76
2023-01-20T03:12:46.665Z,0.76
2023-01-20T03:15:17.297Z,0.74
2023-01-20T03:17:46.598Z,0.69
2023-01-20T03:20:17.457Z,0.62
2023-01-20T03:22:46.763Z,0.55
2023-01-20T03:25:17.398Z,0.48
2023-01-20T03:27:46.615Z,0.47
2023-01-20T03:30:17.144Z,0.48
2023-01-20T03:32:49.414Z,0.51
2023-01-20T03:35:20.313Z,0.51
2023-01-20T03:37:49.736Z,0.53
2023-01-20T03:40:19.280Z,0.48
2023-01-20T03:42:54.999Z,0.45
2023-01-20T03:45:32.968Z,0.45
2023-01-20T03:48:10.660Z,0.47
2023-01-20T03:50:46.964Z,0.50
2023-01-20T03:53:28.944Z,0.52
2023-01-20T03:56:04.245Z,0.50
2023-01-20T03:58:37.458Z,0.50
2023-01-20T04:01:18.976Z,0.51
2023-01-20T04:03:52.805Z,0.52
2023-01-20T04:06:27.239Z,0.52
2023-01-20T04:09:01.023Z,0.51
2023-01-20T04:11:29.979Z,0.54
2023-01-20T04:13:59.203Z,0.56
2023-01-20T04:16:28.638Z,0.59
2023-01-20T04:18:57.881Z,0.58
2023-01-20T04:21:32.692Z,0.60
2023-01-20T04:24:06.401Z,0.59
2023-01-20T04:26:35.454Z,0.58
2023-01-20T04:29:11.158Z,0.55
2023-01-20T04:31:41.863Z,0.50
2023-01-20T04:34:15.429Z,0.46
2023-01-20T04:36:45.899Z,0.45
2023-01-20T04:39:15.090Z,0.50
2023-01-20T04:41:43.914Z,0.56
2023-01-20T04:44:13.209Z,0.56
2023-01-20T04:46:42.145Z,0.56
2023-01-20T04:49:11.436Z,0.56
2023-01-20T04:51:40.362Z,0.55
2023-01-20T04:54:12.206Z,0.55
2023-01-20T04:56:41.210Z,0.58
2023-01-20T04:59:10.369Z,0.56
2023-01-20T05:01:39.370Z,0.59
2023-01-20T05:04:08.302Z,0.59
2023-01-20T05:06:37.638Z,0.63
2023-01-20T05:09:06.587Z,0.62
2023-01-20T05:11:37.279Z,0.54
2023-01-20T05:14:06.208Z,0.50
2023-01-20T05:16:35.706Z,0.53
2023-01-20T05:19:04.672Z,0.54
2023-01-20T05:21:34.350Z,0.50
2023-01-20T05:24:03.310Z,0.44
2023-01-20T05:26:32.916Z,0.44
2023-01-20T05:29:03.744Z,0.46
2023-01-20T05:31:33.265Z,0.49
2023-01-20T05:34:02.175Z,0.51
2023-01-20T05:36:32.806Z,0.55
2023-01-20T05:39:01.943Z,0.57
2023-01-20T05:41:31.171Z,0.50
2023-01-20T05:44:00.394Z,0.44
2023-01-20T05:46:30.976Z,0.44
2023-01-20T05:48:59.712Z,0.42
2023-01-20T05:51:28.896Z,0.39
2023-01-20T05:53:57.854Z,0.38
2023-01-20T05:56:27.074Z,0.37
2023-01-20T05:58:56.867Z,0.35
2023-01-20T06:01:26.208Z,0.34
2023-01-20T06:03:56.607Z,0.29
2023-01-20T06:06:25.884Z,0.30
2023-01-20T06:08:54.999Z,0.30
2023-01-20T06:11:24.680Z,0.29
2023-01-20T06:13:53.575Z,0.29
2023-01-20T06:16:22.951Z,0.29
2023-01-20T06:18:51.959Z,0.25
2023-01-20T06:21:22.543Z,0.29
2023-01-20T06:23:51.261Z,0.23
2023-01-20T06:26:20.472Z,0.27
2023-01-20T06:28:49.420Z,0.32
2023-01-20T06:31:19.107Z,0.34
2023-01-20T06:33:48.092Z,0.38
2023-01-20T06:36:17.751Z,0.39
2023-01-20T06:38:50.729Z,0.34
2023-01-20T06:41:21.342Z,0.31
2023-01-20T06:43:52.239Z,0.30
2023-01-20T06:46:22.370Z,0.28
2023-01-20T06:48:51.727Z,0.18
2023-01-20T06:51:21.860Z,0.15
2023-01-20T06:53:52.193Z,0.14
2023-01-20T06:56:21.573Z,0.16
2023-01-20T06:58:50.865Z,0.21
2023-01-20T07:01:23.248Z,0.21
2023-01-20T07:03:52.494Z,0.19
2023-01-20T07:06:28.147Z,0.20
2023-01-20T07:08:59.597Z,0.28
2023-01-20T07:11:31.402Z,0.32
2023-01-20T07:14:00.572Z,0.29
2023-01-20T07:16:29.993Z,0.22
2023-01-20T07:18:59.394Z,0.22
2023-01-20T07:21:28.690Z,0.20
2023-01-20T07:24:02.322Z,0.24
2023-01-20T07:26:31.835Z,0.34
2023-01-20T07:29:01.086Z,0.43
2023-01-20T07:31:31.994Z,0.40
2023-01-20T07:34:01.184Z,0.38
2023-01-20T07:36:30.581Z,0.35
2023-01-20T07:39:00.949Z,0.35
2023-01-20T07:41:30.419Z,0.37
2023-01-20T07:43:59.316Z,0.35
2023-01-20T07:46:28.605Z,0.39
2023-01-20T07:48:57.779Z,0.42
2023-01-20T07:51:26.985Z,0.43
2023-01-20T07:53:55.996Z,0.37
2023-01-20T07:56:29.669Z,0.39
2023-01-20T07:58:59.032Z,0.42
2023-01-20T08:01:30.765Z,0.42
2023-01-20T08:04:01.410Z,0.42
2023-01-20T08:06:31.605Z,0.43
2023-01-20T08:09:02.462Z,0.42
2023-01-20T08:11:33.214Z,0.47
2023-01-20T08:14:02.259Z,0.49
2023-01-20T08:16:31.598Z,0.53
2023-01-20T08:19:00.565Z,0.51
2023-01-20T08:21:31.767Z,0.57
2023-01-20T08:24:02.639Z,0.55
2023-01-20T08:26:33.759Z,0.56
2023-01-20T08:29:07.375Z,0.55
2023-01-20T08:31:37.425Z,0.60
2023-01-20T08:34:06.707Z,0.62
2023-01-20T08:36:38.296Z,0.62
2023-01-20T08:39:09.592Z,0.57
2023-01-20T08:41:43.786Z,0.56
2023-01-20T08:44:13.680Z,0.58
2023-01-20T08:46:43.426Z,0.57
2023-01-20T08:49:14.621Z,0.56
2023-01-20T08:51:45.139Z,0.50
2023-01-20T08:54:14.993Z,0.52
2023-01-20T08:56:46.135Z,0.55
2023-01-20T08:59:15.083Z,0.58
2023-01-20T09:01:44.437Z,0.61
2023-01-20T09:04:13.798Z,0.62
2023-01-20T09:06:45.183Z,0.64
2023-01-20T09:09:15.490Z,0.54
2023-01-20T09:11:50.862Z,0.47
2023-01-20T09:14:20.675Z,0.51
2023-01-20T09:16:50.165Z,0.57
2023-01-20T09:19:19.152Z,0.57
2023-01-20T09:21:48.410Z,0.65
2023-01-20T09:24:17.462Z,0.70
2023-01-20T09:26:49.366Z,0.73
2023-01-20T09:29:19.999Z,0.76
2023-01-20T09:31:53.674Z,0.79
2023-01-20T09:34:24.386Z,0.75
2023-01-20T09:36:54.920Z,0.76
2023-01-20T09:39:56.280Z,0.76
2023-01-20T09:42:56.645Z,0.76
2023-01-20T09:45:29.319Z,0.79
2023-01-20T09:48:14.160Z,0.79
2023-01-20T09:51:08.390Z,0.79
2023-01-20T09:53:49.817Z,0.77
2023-01-20T09:56:21.067Z,0.75
2023-01-20T09:58:59.663Z,0.75
2023-01-20T10:01:37.589Z,0.75
2023-01-20T10:04:14.021Z,0.70
2023-01-20T10:06:47.287Z,0.62
2023-01-20T10:09:24.142Z,0.71
2023-01-20T10:12:00.832Z,0.77
2023-01-20T10:14:36.342Z,0.81
2023-01-20T10:17:13.917Z,0.87
2023-01-20T10:19:48.256Z,0.92
2023-01-20T10:22:22.379Z,0.90
2023-01-20T10:24:56.241Z,0.93
2023-01-20T10:27:27.827Z,0.95
2023-01-20T10:30:05.485Z,0.97
2023-01-20T10:32:38.166Z,0.98
2023-01-20T10:35:16.772Z,0.99
2023-01-20T10:37:46.025Z,0.99
2023-01-20T10:40:26.610Z,1.00
2023-01-20T10:42:58.043Z,0.97
2023-01-20T10:45:39.395Z,0.99
2023-01-20T10:48:23.707Z,1.02
2023-01-20T10:51:03.040Z,1.03
2023-01-20T10:53:47.212Z,1.01
2023-01-20T10:56:39.606Z,1.04
2023-01-20T10:59:14.907Z,1.08
2023-01-20T11:01:59.262Z,1.10
2023-01-20T11:04:36.121Z,1.10
2023-01-20T11:07:08.710Z,1.05
2023-01-20T11:09:38.804Z,1.03
2023-01-20T11:12:13.473Z,0.96
2023-01-20T11:14:43.335Z,0.93
2023-01-20T11:17:18.719Z,1.00
2023-01-20T11:19:50.223Z,1.05
2023-01-20T11:22:25.501Z,1.06
2023-01-20T11:24:58.857Z,1.08
2023-01-20T11:27:31.250Z,1.05
2023-01-20T11:30:03.787Z,1.05
2023-01-20T11:32:36.431Z,1.11
2023-01-20T11:35:22.212Z,1.14
2023-01-20T11:37:51.863Z,1.12
2023-01-20T11:40:24.182Z,1.10
2023-01-20T11:42:55.305Z,1.12
2023-01-20T11:45:31.125Z,1.16
2023-01-20T11:48:05.889Z,1.15
2023-01-20T11:50:40.557Z,1.18
2023-01-20T11:53:21.163Z,1.20
2023-01-20T11:55:53.917Z,1.16
2023-01-20T11:58:25.608Z,1.18
2023-01-20T12:01:01.822Z,1.11
2023-01-20T12:04:00.747Z,1.08
2023-01-20T12:06:33.585Z,1.10
2023-01-20T12:09:05.963Z,1.08
2023-01-20T12:11:41.876Z,1.16
2023-01-20T12:14:24.923Z,1.23
2023-01-20T12:17:15.486Z,1.33
2023-01-20T12:20:02.570Z,1.40
2023-01-20T12:22:40.792Z,1.46
2023-01-20T12:25:20.046Z,1.48
2023-01-20T12:27:52.225Z,1.55
2023-01-20T12:30:43.568Z,1.65
2023-01-20T12:33:20.763Z,1.69
2023-01-20T12:36:31.008Z,1.72
2023-01-20T12:39:33.489Z,1.72
2023-01-20T12:42:41.183Z,1.73
2023-01-20T12:45:21.069Z,1.79
2023-01-20T12:48:11.677Z,1.85
2023-01-20T12:50:55.515Z,1.88
2023-01-20T12:53:56.071Z,1.90
2023-01-20T12:56:39.992Z,1.86
2023-01-20T12:59:22.607Z,1.92
2023-01-20T13:02:01.755Z,1.93
2023-01-20T13:04:59.456Z,1.97
2023-01-20T13:07:49.795Z,2.03
2023-01-20T13:10:33.457Z,2.05
2023-01-20T13:13:07.686Z,2.04
2023-01-20T13:15:42.353Z,2.01
2023-01-20T13:18:25.907Z,2.01
2023-01-20T13:20:56.535Z,2.03
2023-01-20T13:23:27.117Z,1.98
2023-01-20T13:25:59.402Z,1.91
2023-01-20T13:28:30.460Z,1.84
2023-01-20T13:31:01.603Z,1.75
2023-01-20T13:33:37.281Z,1.73
2023-01-20T13:36:18.224Z,1.76
2023-01-20T13:38:47.856Z,1.75
2023-01-20T13:41:49.960Z,1.75
2023-01-20T13:44:36.210Z,1.76
2023-01-20T13:47:08.204Z,1.77
2023-01-20T13:49:51.483Z,1.85
2023-01-20T13:52:53.284Z,1.87
2023-01-20T13:55:50.125Z,1.88
2023-01-20T13:58:23.103Z,1.87
2023-01-20T14:00:55.410Z,1.82
2023-01-20T14:03:29.021Z,1.81
2023-01-20T14:06:00.765Z,1.75
2023-01-20T14:08:32.315Z,1.72
2023-01-20T14:11:15.846Z,1.73
2023-01-20T14:13:55.194Z,1.72
2023-01-20T14:16:27.679Z,1.73
2023-01-20T14:19:00.411Z,1.73
2023-01-20T14:21:30.429Z,1.75
2023-01-20T14:23:59.660Z,1.73
2023-01-20T14:26:30.784Z,1.71
2023-01-20T14:29:03.220Z,1.68
2023-01-20T14:31:37.522Z,1.62
2023-01-20T14:34:26.879Z,1.59
2023-01-20T14:36:58.832Z,1.56
2023-01-20T14:39:30.349Z,1.53
2023-01-20T14:42:01.138Z,1.51
2023-01-20T14:44:33.742Z,1.50
2023-01-20T14:47:04.397Z,1.47
2023-01-20T14:49:39.442Z,1.48
2023-01-20T14:52:09.767Z,1.47
2023-01-20T14:54:43.515Z,1.44
2023-01-20T14:57:23.289Z,1.41
2023-01-20T15:00:16.351Z,1.37
2023-01-20T15:02:57.953Z,1.35
2023-01-20T15:05:40.339Z,1.35
2023-01-20T15:08:25.476Z,1.35
2023-01-20T15:11:22.460Z,1.33
2023-01-20T15:14:11.387Z,1.28
2023-01-20T15:16:47.507Z,1.26
2023-01-20T15:19:35.627Z,1.32
2023-01-20T15:22:23.165Z,1.36
2023-01-20T15:24:53.546Z,1.40
2023-01-20T15:27:29.313Z,1.44
2023-01-20T15:30:04.605Z,1.48
2023-01-20T15:32:35.319Z,1.51
2023-01-20T15:35:04.068Z,1.48
2023-01-20T15:37:33.257Z,1.50
2023-01-20T15:40:02.281Z,1.50
2023-01-20T15:42:31.620Z,1.50
2023-01-20T15:45:00.550Z,1.53
2023-01-20T15:47:31.674Z,1.50
2023-01-20T15:50:02.339Z,1.47
2023-01-20T15:52:31.652Z,1.43
2023-01-20T15:55:00.517Z,1.45
2023-01-20T15:57:30.101Z,1.50
2023-01-20T15:59:59.066Z,1.51
2023-01-20T16:02:28.258Z,1.56
2023-01-20T16:04:57.232Z,1.56
2023-01-20T16:07:29.787Z,1.59
2023-01-20T16:09:58.813Z,1.59
2023-01-20T16:12:28.119Z,1.61
2023-01-20T16:14:58.060Z,1.62
2023-01-20T16:17:31.127Z,1.58
2023-01-20T16:20:00.167Z,1.57
2023-01-20T16:22:30.732Z,1.60
2023-01-20T16:24:59.538Z,1.57
2023-01-20T16:27:28.763Z,1.58
2023-01-20T16:29:57.692Z,1.62
2023-01-20T16:32:27.137Z,1.64
2023-01-20T16:34:56.150Z,1.66
2023-01-20T16:37:25.368Z,1.66
2023-01-20T16:39:55.958Z,1.68
2023-01-20T16:42:25.565Z,1.69
2023-01-20T16:44:54.711Z,1.71
2023-01-20T16:47:24.043Z,1.73
2023-01-20T16:49:52.940Z,1.72
2023-01-20T16:52:22.199Z,1.73
2023-01-20T16:54:51.131Z,1.72
2023-01-20T16:57:21.954Z,1.73
2023-01-20T16:59:50.725Z,1.72
2023-01-20T17:02:19.986Z,1.72
2023-01-20T17:04:49.003Z,1.74
2023-01-20T17:07:18.295Z,1.75
2023-01-20T17:09:47.410Z,1.73
2023-01-20T17:12:16.807Z,1.73
2023-01-20T17:14:47.114Z,1.72
2023-01-20T17:17:16.376Z,1.70
2023-01-20T17:19:45.304Z,1.71
2023-01-20T17:22:14.802Z,1.70
2023-01-20T17:24:43.736Z,1.71
2023-01-20T17:27:12.918Z,1.71
2023-01-20T17:29:41.925Z,1.71
2023-01-20T17:32:12.666Z,1.70
2023-01-20T17:34:41.637Z,1.69
2023-01-20T17:37:10.889Z,1.71
2023-01-20T17:39:39.901Z,1.73
2023-01-20T17:42:09.153Z,1.74
2023-01-20T17:44:38.835Z,1.73
2023-01-20T17:47:08.101Z,1.72
2023-01-20T17:49:38.451Z,1.71
2023-01-20T17:52:07.863Z,1.70
2023-01-20T17:54:36.761Z,1.71
2023-01-20T17:57:05.975Z,1.76
2023-01-20T17:59:34.869Z,1.74
2023-01-20T18:02:05.516Z,1.74
2023-01-20T18:04:34.920Z,1.74
2023-01-20T18:07:05.494Z,1.71
2023-01-20T18:09:34.335Z,1.69
2023-01-20T18:12:03.570Z,1.64
2023-01-20T18:14:32.578Z,1.55
2023-01-20T18:17:01.797Z,1.51
2023-01-20T18:19:30.767Z,1.50
2023-01-20T18:22:02.043Z,1.49
2023-01-20T18:24:32.594Z,1.47
2023-01-20T18:27:01.951Z,1.46
2023-01-20T18:29:30.894Z,1.43
2023-01-20T18:32:00.378Z,1.40
2023-01-20T18:34:29.313Z,1.36
2023-01-20T18:36:58.578Z,1.33
2023-01-20T18:39:28.308Z,1.31
2023-01-20T18:41:59.045Z,1.27
2023-01-20T18:44:28.010Z,1.22
2023-01-20T18:46:57.307Z,1.17
2023-01-20T18:49:26.327Z,1.16
2023-01-20T18:51:55.601Z,1.19
2023-01-20T18:54:25.958Z,1.19
2023-01-20T18:56:55.490Z,1.14
2023-01-20T18:59:26.273Z,1.11
2023-01-20T19:01:56.596Z,1.11
2023-01-20T19:04:25.532Z,1.12
2023-01-20T19:06:55.143Z,1.12
2023-01-20T19:09:24.323Z,1.09
2023-01-20T19:11:53.677Z,1.10
2023-01-20T19:14:24.244Z,1.12
2023-01-20T19:16:53.673Z,1.10
2023-01-20T19:19:22.824Z,1.09
2023-01-20T19:21:53.030Z,1.06
2023-01-20T19:24:23.147Z,1.05
2023-01-20T19:26:52.648Z,1.09
2023-01-20T19:29:22.057Z,1.08
2023-01-20T19:31:52.755Z,1.05
2023-01-20T19:34:21.789Z,1.07
2023-01-20T19:36:51.128Z,1.03
2023-01-20T19:39:20.595Z,1.01
2023-01-20T19:41:49.837Z,0.99
2023-01-20T19:44:18.762Z,0.99
2023-01-20T19:46:48.156Z,1.01
2023-01-20T19:49:18.751Z,1.01
2023-01-20T19:51:48.069Z,1.01
2023-01-20T19:54:17.423Z,0.99
2023-01-20T19:56:46.641Z,1.00
2023-01-20T19:59:15.626Z,1.00
2023-01-20T20:01:45.062Z,1.02
2023-01-20T20:04:14.135Z,0.99
2023-01-20T20:06:48.538Z,0.96
2023-01-20T20:09:20.044Z,0.92
2023-01-20T20:11:50.907Z,0.87
2023-01-20T20:14:22.972Z,0.89
2023-01-20T20:16:52.599Z,0.88
2023-01-20T20:19:22.046Z,0.88
2023-01-20T20:21:53.839Z,0.83
2023-01-20T20:24:23.204Z,0.87
2023-01-20T20:26:52.782Z,0.85
2023-01-20T20:29:21.883Z,0.88
2023-01-20T20:31:51.358Z,0.89
2023-01-20T20:34:21.465Z,0.90
2023-01-20T20:36:52.121Z,0.92
2023-01-20T20:39:21.406Z,0.89
2023-01-20T20:41:50.647Z,0.87
2023-01-20T20:44:20.193Z,0.87
2023-01-20T20:46:49.706Z,0.86
2023-01-20T20:49:19.326Z,0.90
2023-01-20T20:52:15.103Z,0.92
2023-01-20T20:54:46.651Z,0.88
2023-01-20T20:57:15.908Z,0.92
2023-01-20T20:59:58.572Z,0.87
2023-01-20T21:02:29.758Z,0.87
2023-01-20T21:04:58.603Z,0.79
2023-01-20T21:07:27.816Z,0.81
2023-01-20T21:09:58.494Z,0.78
2023-01-20T21:12:27.779Z,0.78
2023-01-20T21:14:56.711Z,0.81
2023-01-20T21:17:26.011Z,0.78
2023-01-20T21:19:55.391Z,0.79
2023-01-20T21:22:24.682Z,0.78
2023-01-20T21:24:53.640Z,0.80
2023-01-20T21:27:24.323Z,0.78
2023-01-20T21:29:53.085Z,0.79
2023-01-20T21:32:22.407Z,0.80
2023-01-20T21:34:51.437Z,0.79
2023-01-20T21:37:20.728Z,0.82
2023-01-20T21:39:49.747Z,0.84
2023-01-20T21:42:18.934Z,0.83
2023-01-20T21:44:49.593Z,0.85
2023-01-20T21:47:18.805Z,0.86
2023-01-20T21:50:05.033Z,0.88
2023-01-20T21:52:42.873Z,0.88
2023-01-20T21:55:15.977Z,0.89
2023-01-20T21:57:45.409Z,0.85
2023-01-20T22:00:17.931Z,0.87
2023-01-20T22:02:47.659Z,0.86
2023-01-20T22:05:16.719Z,0.90
2023-01-20T22:07:47.929Z,0.89
2023-01-20T22:10:17.511Z,0.82
2023-01-20T22:12:46.828Z,0.82
2023-01-20T22:15:17.375Z,0.85
2023-01-20T22:17:47.504Z,0.86
2023-01-20T22:20:17.218Z,0.86
2023-01-20T22:22:46.664Z,0.85
2023-01-20T22:25:15.772Z,0.87
2023-01-20T22:27:45.060Z,0.89
2023-01-20T22:30:14.834Z,0.87
2023-01-20T22:32:45.455Z,0.77
2023-01-20T22:35:14.602Z,0.82
2023-01-20T22:37:43.791Z,0.76
2023-01-20T22:40:13.596Z,0.76
2023-01-20T22:42:43.023Z,0.81
2023-01-20T22:45:12.771Z,0.82
2023-01-20T22:47:41.969Z,0.82
2023-01-20T22:50:13.387Z,0.81
2023-01-20T22:52:42.694Z,0.81
2023-01-20T22:55:11.732Z,0.82
2023-01-20T22:57:41.010Z,0.85
2023-01-20T23:00:12.200Z,0.87
2023-01-20T23:02:41.562Z,0.87
2023-01-20T23:05:12.318Z,0.89
2023-01-20T23:07:41.582Z,0.90
2023-01-20T23:10:32.415Z,0.90
2023-01-20T23:13:01.849Z,0.88
2023-01-20T23:15:30.849Z,0.87
2023-01-20T23:18:00.097Z,0.86
2023-01-20T23:20:30.503Z,0.83
2023-01-20T23:22:59.785Z,0.86
2023-01-20T23:25:28.656Z,0.83
2023-01-20T23:27:57.980Z,0.84
2023-01-20T23:30:26.864Z,0.77
2023-01-20T23:32:56.371Z,0.78
2023-01-20T23:35:25.459Z,0.78
2023-01-20T23:37:56.031Z,0.77
2023-01-20T23:40:24.835Z,0.74
2023-01-20T23:42:54.240Z,0.73
2023-01-20T23:45:23.122Z,0.70
2023-01-20T23:47:53.126Z,0.71
2023-01-20T23:50:22.276Z,0.76
2023-01-20T23:52:51.465Z,0.77
2023-01-20T23:55:21.811Z,0.75
2023-01-20T23:57:51.091Z,0.73
